Pj Brix — WDD5130 — position and weather

sailwx.info

Track history (hours):
 
Tides and Currents Weather Stations Pressure Air Temp Water Temp Dewpoint Dewpoint Depression Visibility Wind Speed Wind Dir Waves Ship Positions

Pj Brix

Owner: Foss Maritime Co., Portland, OR. More information available from US FCC via Universal Licensing System and Coast Guard Vessel Documentation Center.

Last reported at 2018-Apr-22 16:00 UTC. Time now 2018-Apr-22 16:25 UTC.
Position N 45°39' W 122°45'.

Length 39 m; draft 3 m.

Type: Towing. MMSI: 2249672.

Date/timePositionNaut miles runAvg speedWind from/ knotsBaromVisibWave heightAir tempDewpointWater temp
2018-Apr-22 16:00N 45°39' W 122°45'0 0.0
2018-Apr-22 15:30N 45°39' W 122°45'0 0.0
2018-Apr-22 14:45N 45°39' W 122°45'0 0.0
2018-Apr-22 14:30N 45°39' W 122°45'0 0.0
2018-Apr-22 14:00N 45°39' W 122°45'0 0.0
2018-Apr-22 13:30N 45°39' W 122°45'0 0.0
2018-Apr-22 13:00N 45°39' W 122°45'0 0.0
2018-Apr-22 12:30N 45°39' W 122°45'0 0.0
2018-Apr-22 12:00N 45°39' W 122°45'0 0.0
2018-Apr-22 11:30N 45°39' W 122°45'0 0.0
2018-Apr-22 11:01N 45°39' W 122°45'0 0.0
2018-Apr-22 10:17N 45°39' W 122°45'0 0.0
2018-Apr-22 10:00N 45°39' W 122°45'0 0.0
2018-Apr-22 09:30N 45°39' W 122°45'0 0.0
2018-Apr-22 09:00N 45°39' W 122°45'0 0.0
2018-Apr-22 08:21N 45°39' W 122°45'0 0.0
2018-Apr-22 08:00N 45°39' W 122°45'0 0.0
2018-Apr-22 07:24N 45°39' W 122°45'0 0.0
2018-Apr-22 06:59N 45°39' W 122°45'0 0.0
2018-Apr-22 06:21N 45°39' W 122°45'0 0.0
2018-Apr-22 06:00N 45°39' W 122°45'0 0.0
2018-Apr-22 05:12N 45°39' W 122°45'0 0.0
2018-Apr-22 05:01N 45°39' W 122°45'0 0.0
2018-Apr-22 04:28N 45°39' W 122°45'0 0.0
2018-Apr-22 04:00N 45°39' W 122°45'0 0.0
2018-Apr-22 03:29N 45°39' W 122°45'0 0.0
2018-Apr-22 03:00N 45°39' W 122°45'0 0.0
2018-Apr-22 02:31N 45°39' W 122°45'0 0.0
2018-Apr-22 02:00N 45°39' W 122°45'1 1.1
2018-Apr-22 01:30N 45°39' W 122°45'2 3.2
2018-Apr-22 01:00N 45°38' W 122°43'0 1.0
2018-Apr-22 00:30N 45°38' W 122°43'2 2.7
2018-Apr-21 23:54N 45°39' W 122°45'0 0.0
2018-Apr-21 23:30N 45°39' W 122°45'1 1.6
2018-Apr-21 23:00N 45°40' W 122°46'0 0.2
2018-Apr-21 22:30N 45°40' W 122°46'1 1.4
2018-Apr-21 22:01N 45°39' W 122°45'0 0.0
2018-Apr-21 21:31N 45°39' W 122°45'0 0.0
2018-Apr-21 21:01N 45°39' W 122°45'2 3.9
2018-Apr-21 20:31N 45°38' W 122°47'3 5.4
2018-Apr-21 20:00N 45°35' W 122°46'0 0.0
2018-Apr-21 19:30N 45°35' W 122°46'0 0.0
2018-Apr-21 18:56N 45°35' W 122°46'0 0.0
2018-Apr-21 18:30N 45°35' W 122°46'0 0.0
2018-Apr-21 17:44N 45°35' W 122°46'0 0.0
2018-Apr-21 17:31N 45°35' W 122°46'0 0.0
2018-Apr-21 17:00N 45°35' W 122°46'0 0.0
2018-Apr-21 16:30N 45°35' W 122°46'0 0.6
2018-Apr-21 16:00N 45°36' W 122°46'4 5.9
2018-Apr-21 15:21N 45°39' W 122°45'0 0.0
2018-Apr-21 15:00N 45°39' W 122°45'0 0.0
2018-Apr-21 14:30N 45°39' W 122°45'0 0.0
2018-Apr-21 14:01N 45°39' W 122°45'0 0.0
2018-Apr-21 13:30N 45°39' W 122°45'0 0.0
2018-Apr-21 13:00N 45°39' W 122°45'0 0.0
2018-Apr-21 12:28N 45°39' W 122°45'0 0.0
2018-Apr-21 12:01N 45°39' W 122°45'0 0.0
2018-Apr-21 11:30N 45°39' W 122°45'0 0.0
2018-Apr-21 11:00N 45°39' W 122°45'0 0.0
2018-Apr-21 10:30N 45°39' W 122°45'3 6.9
2018-Apr-21 10:01N 45°43' W 122°46'4 7.4
2018-Apr-21 09:30N 45°46' W 122°46'4 7.3
2018-Apr-21 09:00N 45°50' W 122°48'3 7.0
2018-Apr-21 08:31N 45°53' W 122°48'4 7.2
2018-Apr-21 08:00N 45°57' W 122°49'4 7.4
2018-Apr-21 07:31N 46°00' W 122°51'1 3.0
2018-Apr-21 07:00N 46°02' W 122°52'0 0.8
2018-Apr-21 06:31N 46°02' W 122°53'0 0.8
2018-Apr-21 06:01N 46°02' W 122°52'0 0.0
2018-Apr-21 05:30N 46°02' W 122°52'0 0.0
2018-Apr-21 05:00N 46°02' W 122°52'0 0.0
2018-Apr-21 04:30N 46°02' W 122°52'2 4.1
2018-Apr-21 04:00N 46°04' W 122°53'0 0.0
2018-Apr-21 03:30N 46°04' W 122°53'0 0.0
2018-Apr-21 03:01N 46°04' W 122°53'0 0.0
2018-Apr-21 02:26N 46°04' W 122°53'0 0.0
2018-Apr-21 02:00N 46°04' W 122°53'0 0.1
2018-Apr-21 01:17N 46°04' W 122°53'0 0.2
2018-Apr-21 01:01N 46°04' W 122°53'0 0.3
2018-Apr-21 00:30N 46°04' W 122°53'0 0.6
2018-Apr-21 00:00N 46°04' W 122°53'2 3.7
2018-Apr-20 23:31N 46°05' W 122°55'0 1.0
2018-Apr-20 23:01N 46°05' W 122°56'0 0.0
2018-Apr-20 22:31N 46°05' W 122°56'0 0.0
2018-Apr-20 22:00N 46°05' W 122°56'0 0.0
2018-Apr-20 21:31N 46°05' W 122°56'0 0.0
2018-Apr-20 21:00N 46°05' W 122°56'1 1.6
2018-Apr-20 20:31N 46°06' W 122°57'0 0.6
2018-Apr-20 20:01N 46°06' W 122°57'1 3.0
2018-Apr-20 19:30N 46°05' W 122°55'712.9
2018-Apr-20 18:58N 45°59' W 122°50'612.6
2018-Apr-20 18:31N 45°53' W 122°48'612.4
2018-Apr-20 18:00N 45°47' W 122°47'812.2
2018-Apr-20 17:22N 45°40' W 122°46'2 5.2
2018-Apr-20 17:00N 45°39' W 122°43'0 0.0
2018-Apr-20 16:30N 45°39' W 122°43'1 2.6
2018-Apr-20 16:00N 45°39' W 122°45'1 1.8
2018-Apr-20 15:31N 45°39' W 122°46'0 0.0
2018-Apr-20 14:58N 45°39' W 122°46'0 0.0
2018-Apr-20 14:30N 45°39' W 122°46'0 0.0
2018-Apr-20 14:00N 45°39' W 122°46'0 0.3
2018-Apr-20 13:30N 45°39' W 122°46'2 4.9
2018-Apr-20 13:00N 45°38' W 122°43'0 0.0
2018-Apr-20 12:31N 45°38' W 122°43'1 1.5
2018-Apr-20 12:01N 45°39' W 122°44'1 1.6
2018-Apr-20 11:30N 45°39' W 122°45'0 0.4
2018-Apr-20 11:01N 45°39' W 122°45'1 1.5
2018-Apr-20 10:31N 45°39' W 122°45'0 0.0
2018-Apr-20 10:00N 45°39' W 122°45'0 0.0
2018-Apr-20 09:30N 45°39' W 122°45'1 1.2
2018-Apr-20 09:00N 45°39' W 122°45'5 9.8
2018-Apr-20 08:31N 45°37' W 122°39'0 0.0
2018-Apr-20 08:00N 45°37' W 122°39'1 1.7
2018-Apr-20 07:31N 45°37' W 122°40'3 5.7
2018-Apr-20 07:00N 45°38' W 122°43'3 6.0
2018-Apr-20 06:30N 45°41' W 122°46'3 6.1
2018-Apr-20 06:00N 45°44' W 122°46'3 6.2
2018-Apr-20 05:30N 45°47' W 122°46'3 6.1
2018-Apr-20 05:01N 45°50' W 122°48'3 6.0
2018-Apr-20 04:31N 45°53' W 122°48'3 6.0
2018-Apr-20 04:00N 45°56' W 122°48'3 6.0
2018-Apr-20 03:31N 45°58' W 122°50'3 6.4
2018-Apr-20 03:00N 46°01' W 122°52'3 6.1
2018-Apr-20 02:30N 46°04' W 122°54'2 4.0
2018-Apr-20 02:00N 46°05' W 122°56'1 2.5
2018-Apr-20 01:30N 46°06' W 122°57'0 0.3
2018-Apr-20 01:00N 46°06' W 122°57'3 5.2
2018-Apr-20 00:31N 46°08' W 123°00'3 5.7
2018-Apr-20 00:01N 46°09' W 123°04'3 5.8
2018-Apr-19 23:31N 46°11' W 123°07'3 5.5
2018-Apr-19 23:00N 46°11' W 123°11'3 5.5
2018-Apr-19 22:30N 46°10' W 123°15'3 5.5
2018-Apr-19 22:00N 46°09' W 123°18'2 4.1
2018-Apr-19 21:30N 46°09' W 123°21'4 8.4
2018-Apr-19 21:00N 46°09' W 123°15'612.3
2018-Apr-19 20:30N 46°11' W 123°06'713.1
2018-Apr-19 20:00N 46°07' W 122°59'612.3
2018-Apr-19 19:30N 46°02' W 122°53'4 8.0
2018-Apr-19 19:00N 45°59' W 122°50'0 0.3
2018-Apr-19 18:31N 45°59' W 122°50'0 0.2
2018-Apr-19 18:00N 45°59' W 122°50'0 0.0
2018-Apr-19 17:30N 45°59' W 122°50'0 0.0
2018-Apr-19 17:00N 45°59' W 122°50'0 0.0
2018-Apr-19 16:30N 45°59' W 122°50'0 0.0
2018-Apr-19 16:00N 45°59' W 122°50'0 0.0
2018-Apr-19 15:30N 45°59' W 122°50'0 0.0
2018-Apr-19 15:00N 45°59' W 122°50'0 0.0
2018-Apr-19 14:30N 45°59' W 122°50'0 0.1
2018-Apr-19 14:01N 45°59' W 122°50'0 0.2
2018-Apr-19 13:30N 45°59' W 122°50'0 0.3
2018-Apr-19 13:00N 45°59' W 122°50'3 5.7
2018-Apr-19 12:30N 46°02' W 122°52'0 0.0
2018-Apr-19 12:00N 46°02' W 122°52'0 0.0
2018-Apr-19 11:21N 46°02' W 122°52'0 0.0
2018-Apr-19 11:00N 46°02' W 122°52'0 0.0
2018-Apr-19 10:30N 46°02' W 122°52'0 0.0
2018-Apr-19 10:00N 46°02' W 122°52'0 0.0
2018-Apr-19 09:31N 46°02' W 122°52'0 0.0
2018-Apr-19 09:00N 46°02' W 122°52'0 0.0
2018-Apr-19 08:30N 46°02' W 122°52'0 0.0
2018-Apr-19 08:00N 46°02' W 122°52'0 0.0
2018-Apr-19 07:30N 46°02' W 122°52'0 0.0
2018-Apr-19 07:01N 46°02' W 122°52'0 0.0
2018-Apr-19 06:17N 46°02' W 122°52'0 0.0
2018-Apr-19 06:00N 46°02' W 122°52'0 0.0
2018-Apr-19 05:30N 46°02' W 122°52'0 0.0
2018-Apr-19 04:58N 46°02' W 122°52'0 0.0
2018-Apr-19 04:30N 46°02' W 122°52'0 0.0
2018-Apr-19 04:00N 46°02' W 122°52'0 0.0
2018-Apr-19 03:30N 46°02' W 122°52'0 0.0
2018-Apr-19 03:01N 46°02' W 122°52'0 0.0
2018-Apr-19 02:30N 46°02' W 122°52'0 0.2
2018-Apr-19 02:00N 46°02' W 122°52'0 0.0
2018-Apr-19 01:19N 46°02' W 122°52'0 0.1
2018-Apr-19 01:00N 46°02' W 122°52'0 0.0
2018-Apr-19 00:30N 46°02' W 122°52'0 0.0
2018-Apr-18 23:59N 46°02' W 122°52'1 3.0
2018-Apr-18 23:30N 46°03' W 122°53'3 6.1
2018-Apr-18 23:00N 46°05' W 122°56'0 0.1
2018-Apr-18 22:13N 46°05' W 122°56'0 0.0
2018-Apr-18 21:46N 46°05' W 122°56'0 0.0
2018-Apr-18 21:30N 46°05' W 122°56'0 0.0
2018-Apr-18 21:00N 46°05' W 122°56'0 0.0
2018-Apr-18 20:30N 46°05' W 122°56'0 0.0
2018-Apr-18 20:00N 46°05' W 122°56'0 0.0
2018-Apr-18 19:30N 46°05' W 122°56'0 0.0
2018-Apr-18 19:00N 46°05' W 122°56'0 0.0
2018-Apr-18 18:30N 46°05' W 122°56'0 0.0
2018-Apr-18 17:44N 46°05' W 122°56'0 0.0
2018-Apr-18 17:30N 46°05' W 122°56'0 0.0
2018-Apr-18 17:01N 46°05' W 122°56'0 0.0
2018-Apr-18 16:30N 46°05' W 122°56'0 0.0
2018-Apr-18 16:00N 46°05' W 122°56'0 0.0
2018-Apr-18 15:30N 46°05' W 122°56'0 0.0
2018-Apr-18 15:00N 46°05' W 122°56'0 0.0
2018-Apr-18 14:30N 46°05' W 122°56'0 0.0
2018-Apr-18 14:00N 46°05' W 122°56'0 0.0
2018-Apr-18 13:27N 46°05' W 122°56'0 0.0
2018-Apr-18 13:00N 46°05' W 122°56'0 0.0
2018-Apr-18 12:30N 46°05' W 122°56'0 0.0
2018-Apr-18 12:00N 46°05' W 122°56'0 0.0
2018-Apr-18 11:26N 46°05' W 122°56'0 0.0
2018-Apr-18 10:57N 46°05' W 122°56'0 0.0
2018-Apr-18 10:30N 46°05' W 122°56'0 0.0
2018-Apr-18 10:00N 46°05' W 122°56'0 0.0
2018-Apr-18 09:30N 46°05' W 122°56'0 0.0
2018-Apr-18 08:56N 46°05' W 122°56'0 0.0
2018-Apr-18 08:30N 46°05' W 122°56'0 0.0
2018-Apr-18 08:00N 46°05' W 122°56'0 0.0
2018-Apr-18 07:30N 46°05' W 122°56'0 0.0
2018-Apr-18 06:52N 46°05' W 122°56'0 0.0
2018-Apr-18 06:30N 46°05' W 122°56'0 0.0
2018-Apr-18 06:00N 46°05' W 122°56'0 0.0
2018-Apr-18 05:30N 46°05' W 122°56'0 0.0
2018-Apr-18 05:00N 46°05' W 122°56'0 0.0
2018-Apr-18 04:30N 46°05' W 122°56'0 0.0
2018-Apr-18 04:00N 46°05' W 122°56'0 0.0
2018-Apr-18 03:30N 46°05' W 122°56'0 0.0
2018-Apr-18 03:00N 46°05' W 122°56'0 0.0
2018-Apr-18 02:30N 46°05' W 122°56'0 0.0
2018-Apr-18 02:00N 46°05' W 122°56'0 0.0
2018-Apr-18 01:30N 46°05' W 122°56'0 0.0
2018-Apr-18 01:00N 46°05' W 122°56'0 0.0
2018-Apr-18 00:30N 46°05' W 122°56'0 0.0
2018-Apr-18 00:00N 46°05' W 122°56'0 0.0
2018-Apr-17 23:30N 46°05' W 122°56'0 0.0
2018-Apr-17 23:00N 46°05' W 122°56'0 0.0
2018-Apr-17 22:30N 46°05' W 122°56'0 0.0
2018-Apr-17 22:00N 46°05' W 122°56'0 0.0
2018-Apr-17 21:30N 46°05' W 122°56'0 0.0
2018-Apr-17 21:00N 46°05' W 122°56'0 0.0
2018-Apr-17 20:30N 46°05' W 122°56'0 0.0
2018-Apr-17 20:00N 46°05' W 122°56'0 0.2
2018-Apr-17 19:10N 46°05' W 122°56'0 0.0
2018-Apr-17 19:00N 46°05' W 122°56'0 0.0
2018-Apr-17 18:28N 46°05' W 122°56'0 0.0
2018-Apr-17 18:00N 46°05' W 122°56'0 0.0
2018-Apr-17 17:29N 46°05' W 122°56'0 0.0
2018-Apr-17 17:00N 46°05' W 122°56'0 0.0
2018-Apr-17 16:15N 46°05' W 122°56'0 0.0
2018-Apr-17 16:00N 46°05' W 122°56'0 0.0
2018-Apr-17 15:30N 46°05' W 122°56'0 0.0
2018-Apr-17 15:00N 46°05' W 122°56'0 0.0
2018-Apr-17 14:30N 46°05' W 122°56'0 0.0
2018-Apr-17 14:00N 46°05' W 122°56'0 0.0
2018-Apr-17 13:30N 46°05' W 122°56'0 0.0
2018-Apr-17 12:53N 46°05' W 122°56'0 0.0
2018-Apr-17 12:30N 46°05' W 122°56'0 0.0
2018-Apr-17 12:00N 46°05' W 122°56'0 0.0
2018-Apr-17 11:30N 46°05' W 122°56'0 0.0
2018-Apr-17 10:51N 46°05' W 122°56'0 0.0
2018-Apr-17 10:30N 46°05' W 122°56'0 0.0
2018-Apr-17 10:01N 46°05' W 122°56'0 0.0
2018-Apr-17 09:30N 46°05' W 122°56'0 0.0
2018-Apr-17 08:51N 46°05' W 122°56'0 0.0
2018-Apr-17 08:30N 46°05' W 122°56'0 0.0
2018-Apr-17 07:59N 46°05' W 122°56'3 6.1
2018-Apr-17 07:31N 46°03' W 122°53'2 2.3
2018-Apr-17 06:50N 46°02' W 122°52'0 1.5
2018-Apr-17 06:31N 46°02' W 122°53'0 0.4
2018-Apr-17 05:21N 46°02' W 122°52'0 0.2
2018-Apr-17 04:58N 46°02' W 122°52'0 0.0
2018-Apr-17 04:22N 46°02' W 122°52'0 0.0
2018-Apr-17 03:58N 46°02' W 122°52'0 0.0
2018-Apr-17 03:28N 46°02' W 122°52'0 0.0
2018-Apr-17 02:58N 46°02' W 122°52'0 0.0
2018-Apr-17 02:28N 46°02' W 122°52'0 0.0
2018-Apr-17 01:58N 46°02' W 122°52'0 0.0
2018-Apr-17 01:28N 46°02' W 122°52'0 0.0
2018-Apr-17 01:00N 46°02' W 122°52'3 4.8
2018-Apr-17 00:24N 45°59' W 122°50'0 0.0
2018-Apr-17 00:01N 45°59' W 122°50'0 0.0
2018-Apr-16 23:24N 45°59' W 122°50'0 0.0
2018-Apr-16 23:00N 45°59' W 122°50'0 0.9
2018-Apr-16 22:30N 45°59' W 122°51'4 8.2
2018-Apr-16 22:00N 46°03' W 122°53'3 6.0
2018-Apr-16 21:30N 46°05' W 122°56'0 0.0
2018-Apr-16 21:00N 46°05' W 122°56'0 0.4
2018-Apr-16 20:21N 46°06' W 122°56'0 0.6
2018-Apr-16 20:01N 46°06' W 122°56'0 0.8
2018-Apr-16 19:27N 46°05' W 122°56'0 0.0
2018-Apr-16 19:00N 46°05' W 122°56'0 0.0
2018-Apr-16 18:30N 46°05' W 122°56'0 0.0
2018-Apr-16 18:01N 46°05' W 122°56'0 0.9
2018-Apr-16 17:30N 46°06' W 122°56'2 4.0
2018-Apr-16 17:00N 46°05' W 122°54'812.1
2018-Apr-16 16:22N 45°58' W 122°49'611.9
2018-Apr-16 15:54N 45°52' W 122°47'411.4
2018-Apr-16 15:31N 45°48' W 122°47'611.2
2018-Apr-16 15:00N 45°42' W 122°46'3 5.4
2018-Apr-16 14:28N 45°39' W 122°45'0 0.0
2018-Apr-16 13:55N 45°39' W 122°45'0 0.0
2018-Apr-16 13:28N 45°39' W 122°45'0 0.0
2018-Apr-16 12:55N 45°39' W 122°45'0 0.0
2018-Apr-16 12:25N 45°39' W 122°45'0 0.0
2018-Apr-16 11:58N 45°39' W 122°45'0 0.0
2018-Apr-16 11:28N 45°39' W 122°45'0 0.0
2018-Apr-16 10:58N 45°39' W 122°45'0 0.0
2018-Apr-16 10:28N 45°39' W 122°45'0 0.0
2018-Apr-16 09:58N 45°39' W 122°45'0 0.0
2018-Apr-16 09:28N 45°39' W 122°45'0 0.0
2018-Apr-16 08:52N 45°39' W 122°45'0 0.0
2018-Apr-16 08:28N 45°39' W 122°45'0 0.0
2018-Apr-16 07:58N 45°39' W 122°45'0 0.0
2018-Apr-16 07:28N 45°39' W 122°45'0 0.0
2018-Apr-16 06:58N 45°39' W 122°45'0 0.0
2018-Apr-16 06:25N 45°39' W 122°45'0 0.0
2018-Apr-16 05:58N 45°39' W 122°45'0 0.0
2018-Apr-16 05:22N 45°39' W 122°45'0 0.0
2018-Apr-16 04:58N 45°39' W 122°45'0 0.0
2018-Apr-16 04:25N 45°39' W 122°45'0 0.0
2018-Apr-16 03:58N 45°39' W 122°45'0 0.0
2018-Apr-16 03:19N 45°39' W 122°45'0 0.0
2018-Apr-16 02:58N 45°39' W 122°45'0 0.0
2018-Apr-16 02:25N 45°39' W 122°45'0 0.0
2018-Apr-16 01:49N 45°39' W 122°45'0 0.0
2018-Apr-16 01:28N 45°39' W 122°45'0 0.0
2018-Apr-16 00:58N 45°39' W 122°45'0 0.0
2018-Apr-16 00:28N 45°39' W 122°45'0 0.0
2018-Apr-15 23:58N 45°39' W 122°45'0 0.0
2018-Apr-15 23:28N 45°39' W 122°45'0 0.0
2018-Apr-15 22:58N 45°39' W 122°45'0 0.0
2018-Apr-15 22:28N 45°39' W 122°45'0 0.0
2018-Apr-15 21:58N 45°39' W 122°45'0 0.0
2018-Apr-15 21:27N 45°39' W 122°45'3 7.0
2018-Apr-15 21:00N 45°36' W 122°47'1 2.4
2018-Apr-15 20:27N 45°35' W 122°46'0 0.0
2018-Apr-15 20:00N 45°35' W 122°46'0 0.0
2018-Apr-15 19:27N 45°35' W 122°46'0 0.0
2018-Apr-15 19:00N 45°35' W 122°46'0 0.0
2018-Apr-15 18:27N 45°35' W 122°46'0 0.0
2018-Apr-15 17:57N 45°35' W 122°46'0 0.0
2018-Apr-15 17:30N 45°35' W 122°46'0 0.0
2018-Apr-15 16:45N 45°35' W 122°46'0 0.0
2018-Apr-15 16:27N 45°35' W 122°46'0 0.0
2018-Apr-15 15:54N 45°35' W 122°46'2 4.0
2018-Apr-15 15:31N 45°34' W 122°44'0 0.7
2018-Apr-15 15:00N 45°34' W 122°44'1 1.2
2018-Apr-15 14:31N 45°35' W 122°45'1 2.5
2018-Apr-15 14:00N 45°35' W 122°46'0 0.0
2018-Apr-15 13:30N 45°35' W 122°46'0 0.0
2018-Apr-15 13:01N 45°35' W 122°46'0 0.0
2018-Apr-15 12:30N 45°35' W 122°46'0 0.0
2018-Apr-15 12:00N 45°35' W 122°46'0 0.0
2018-Apr-15 11:30N 45°35' W 122°46'0 0.0
2018-Apr-15 11:01N 45°35' W 122°46'0 0.0
2018-Apr-15 10:30N 45°35' W 122°46'0 0.0
2018-Apr-15 09:12N 45°35' W 122°46'0 0.0
2018-Apr-15 09:00N 45°35' W 122°46'0 0.0
2018-Apr-15 08:30N 45°35' W 122°46'4 7.7
2018-Apr-15 08:01N 45°39' W 122°46'4 7.2
2018-Apr-15 07:30N 45°43' W 122°46'4 7.2
2018-Apr-15 07:00N 45°46' W 122°46'4 7.2
2018-Apr-15 06:31N 45°50' W 122°48'3 6.7
2018-Apr-15 06:00N 45°53' W 122°48'3 6.8
2018-Apr-15 05:30N 45°56' W 122°49'3 7.0
2018-Apr-15 05:00N 45°60' W 122°51'3 6.7
2018-Apr-15 04:31N 46°03' W 122°53'3 6.6
2018-Apr-15 04:01N 46°05' W 122°55'3 6.6
2018-Apr-15 03:31N 46°07' W 122°59'3 6.6
2018-Apr-15 03:01N 46°09' W 123°03'3 6.7
2018-Apr-15 02:30N 46°11' W 123°07'3 6.4
2018-Apr-15 02:00N 46°11' W 123°12'3 6.7
2018-Apr-15 01:31N 46°09' W 123°16'4 7.1
2018-Apr-15 01:00N 46°09' W 123°21'3 6.8
2018-Apr-15 00:31N 46°10' W 123°25'3 6.9
2018-Apr-15 00:01N 46°14' W 123°26'4 7.0
2018-Apr-14 23:31N 46°16' W 123°30'4 7.5
2018-Apr-14 23:00N 46°15' W 123°35'4 7.3
2018-Apr-14 22:31N 46°15' W 123°40'4 8.0
2018-Apr-14 22:01N 46°13' W 123°45'4 8.3
2018-Apr-14 21:31N 46°12' W 123°51'1 1.6
2018-Apr-14 21:00N 46°11' W 123°52'0 0.0
2018-Apr-14 20:30N 46°11' W 123°52'0 0.0
2018-Apr-14 20:00N 46°11' W 123°52'0 0.0
2018-Apr-14 19:30N 46°11' W 123°52'0 0.0
2018-Apr-14 19:00N 46°11' W 123°52'0 0.0
2018-Apr-14 18:30N 46°11' W 123°52'0 0.0
2018-Apr-14 18:00N 46°11' W 123°52'0 0.0
2018-Apr-14 17:30N 46°11' W 123°52'0 0.0
2018-Apr-14 17:01N 46°11' W 123°52'0 0.0
2018-Apr-14 16:31N 46°11' W 123°52'0 0.0
2018-Apr-14 16:01N 46°11' W 123°52'0 0.3
2018-Apr-14 15:30N 46°11' W 123°52'0 0.1
2018-Apr-14 15:01N 46°11' W 123°51'0 0.4
2018-Apr-14 14:31N 46°11' W 123°52'0 0.0
2018-Apr-14 14:01N 46°11' W 123°52'0 0.0
2018-Apr-14 13:30N 46°11' W 123°52'0 0.0
2018-Apr-14 12:59N 46°11' W 123°52'4 8.7
2018-Apr-14 12:31N 46°13' W 123°46'611.9
2018-Apr-14 12:00N 46°16' W 123°38'611.9
2018-Apr-14 11:31N 46°16' W 123°30'510.1
2018-Apr-14 11:00N 46°12' W 123°26'8 9.0
2018-Apr-14 10:05N 46°10' W 123°14'111.2
2018-Apr-14 10:00N 46°10' W 123°13'510.1
2018-Apr-14 09:31N 46°10' W 123°06'711.2
2018-Apr-14 08:55N 46°06' W 122°58'411.0
2018-Apr-14 08:31N 46°03' W 122°53'611.8
2018-Apr-14 08:00N 45°58' W 122°50'611.8
2018-Apr-14 07:31N 45°52' W 122°47'611.4
2018-Apr-14 07:00N 45°47' W 122°46'611.7
2018-Apr-14 06:30N 45°41' W 122°47'3 6.2
2018-Apr-14 06:00N 45°38' W 122°45'0 0.7
2018-Apr-14 05:30N 45°38' W 122°44'2 3.1
2018-Apr-14 04:56N 45°38' W 122°47'1 2.0
2018-Apr-14 04:24N 45°37' W 122°47'2 3.5
2018-Apr-14 03:44N 45°35' W 122°46'0 0.0
2018-Apr-14 03:29N 45°35' W 122°46'0 0.0
2018-Apr-14 02:56N 45°35' W 122°46'0 0.0
2018-Apr-14 02:23N 45°35' W 122°46'0 0.0
2018-Apr-14 01:50N 45°35' W 122°46'0 0.0
2018-Apr-14 01:29N 45°35' W 122°46'0 0.0
2018-Apr-14 00:56N 45°35' W 122°46'0 0.0
2018-Apr-14 00:29N 45°35' W 122°46'0 0.0
2018-Apr-13 23:59N 45°35' W 122°46'0 0.0
2018-Apr-13 23:26N 45°35' W 122°46'0 0.0
2018-Apr-13 22:56N 45°35' W 122°46'0 0.0
2018-Apr-13 22:29N 45°35' W 122°46'0 0.0
2018-Apr-13 21:59N 45°35' W 122°46'0 0.0
2018-Apr-13 21:29N 45°35' W 122°46'0 0.0
2018-Apr-13 20:56N 45°35' W 122°46'0 0.0
2018-Apr-13 20:29N 45°35' W 122°46'0 0.0
2018-Apr-13 19:59N 45°35' W 122°46'0 0.0
2018-Apr-13 19:29N 45°35' W 122°46'0 0.0
2018-Apr-13 18:59N 45°35' W 122°46'0 0.0
2018-Apr-13 18:14N 45°35' W 122°46'0 0.0
2018-Apr-13 17:59N 45°35' W 122°46'0 0.0
2018-Apr-13 16:41N 45°35' W 122°46'0 0.0
2018-Apr-13 16:29N 45°35' W 122°46'0 0.0
2018-Apr-13 15:53N 45°35' W 122°46'0 0.0
2018-Apr-13 15:29N 45°35' W 122°46'0 0.0
2018-Apr-13 14:41N 45°35' W 122°46'0 0.0
2018-Apr-13 14:26N 45°35' W 122°46'0 0.0
2018-Apr-13 13:53N 45°35' W 122°46'0 0.0
2018-Apr-13 13:26N 45°35' W 122°46'0 0.0
2018-Apr-13 12:59N 45°35' W 122°46'0 0.0
2018-Apr-13 12:29N 45°35' W 122°46'0 0.0
2018-Apr-13 11:59N 45°35' W 122°46'0 0.0
2018-Apr-13 11:26N 45°35' W 122°46'0 0.0
2018-Apr-13 10:59N 45°35' W 122°46'0 0.0
2018-Apr-13 10:26N 45°35' W 122°46'0 0.0
2018-Apr-13 09:59N 45°35' W 122°46'0 0.0
2018-Apr-13 09:26N 45°35' W 122°46'0 0.0
2018-Apr-13 09:00N 45°35' W 122°46'3 5.5
2018-Apr-13 08:30N 45°38' W 122°47'4 8.2
2018-Apr-13 08:01N 45°42' W 122°46'4 8.0
2018-Apr-13 07:31N 45°46' W 122°46'4 7.8
2018-Apr-13 07:00N 45°50' W 122°48'4 7.4
2018-Apr-13 06:30N 45°53' W 122°48'4 7.4
2018-Apr-13 06:00N 45°57' W 122°49'4 7.6
2018-Apr-13 05:31N 46°00' W 122°51'4 7.5
2018-Apr-13 05:00N 46°04' W 122°53'4 7.2
2018-Apr-13 04:30N 46°06' W 122°57'5 7.3
2018-Apr-13 03:49N 46°09' W 123°03'4 7.5
2018-Apr-13 03:21N 46°11' W 123°07'2 7.2
2018-Apr-13 03:00N 46°11' W 123°11'4 7.1
2018-Apr-13 02:30N 46°09' W 123°15'4 7.5
2018-Apr-13 01:59N 46°09' W 123°21'4 7.2
2018-Apr-13 01:26N 46°11' W 123°26'3 7.2
2018-Apr-13 01:01N 46°14' W 123°26'3 6.9
2018-Apr-13 00:30N 46°16' W 123°30'5 7.4
2018-Apr-12 23:47N 46°15' W 123°38'2 7.3
2018-Apr-12 23:31N 46°15' W 123°40'4 7.6
2018-Apr-12 23:01N 46°13' W 123°45'4 7.7
2018-Apr-12 22:30N 46°12' W 123°50'1 2.0
2018-Apr-12 22:00N 46°11' W 123°52'0 0.0
2018-Apr-12 21:31N 46°11' W 123°52'0 0.2
2018-Apr-12 21:00N 46°11' W 123°52'1 2.2
2018-Apr-12 20:31N 46°11' W 123°53'1 2.2
2018-Apr-12 20:00N 46°11' W 123°52'0 0.0
2018-Apr-12 19:30N 46°11' W 123°52'0 0.0
2018-Apr-12 19:00N 46°11' W 123°52'0 0.0
2018-Apr-12 18:31N 46°11' W 123°52'0 0.0
2018-Apr-12 18:00N 46°11' W 123°52'0 0.0
2018-Apr-12 17:31N 46°11' W 123°52'0 0.0
2018-Apr-12 17:00N 46°11' W 123°52'0 0.0
2018-Apr-12 16:31N 46°11' W 123°52'0 0.0
2018-Apr-12 16:00N 46°11' W 123°52'  
Track history (hours):
 
Tides and Currents Weather Stations Pressure Air Temp Water Temp Dewpoint Dewpoint Depression Visibility Wind Speed Wind Dir Waves Ship Positions

Pj Brix

Owner: Foss Maritime Co., Portland, OR. More information available from US FCC via Universal Licensing System and Coast Guard Vessel Documentation Center.

Last reported at 2018-Apr-22 16:00 UTC. Time now 2018-Apr-22 16:25 UTC.
Position N 45°39' W 122°45'.

Length 39 m; draft 3 m.

Type: Towing. MMSI: 2249672.

Date/timePositionNaut miles runAvg speedWind from/ knotsBaromVisibWave heightAir tempDewpointWater temp
2018-Apr-22 16:00N 45°39' W 122°45'0 0.0
2018-Apr-22 15:30N 45°39' W 122°45'0 0.0
2018-Apr-22 14:45N 45°39' W 122°45'0 0.0
2018-Apr-22 14:30N 45°39' W 122°45'0 0.0
2018-Apr-22 14:00N 45°39' W 122°45'0 0.0
2018-Apr-22 13:30N 45°39' W 122°45'0 0.0
2018-Apr-22 13:00N 45°39' W 122°45'0 0.0
2018-Apr-22 12:30N 45°39' W 122°45'0 0.0
2018-Apr-22 12:00N 45°39' W 122°45'0 0.0
2018-Apr-22 11:30N 45°39' W 122°45'0 0.0
2018-Apr-22 11:01N 45°39' W 122°45'0 0.0
2018-Apr-22 10:17N 45°39' W 122°45'0 0.0
2018-Apr-22 10:00N 45°39' W 122°45'0 0.0
2018-Apr-22 09:30N 45°39' W 122°45'0 0.0
2018-Apr-22 09:00N 45°39' W 122°45'0 0.0
2018-Apr-22 08:21N 45°39' W 122°45'0 0.0
2018-Apr-22 08:00N 45°39' W 122°45'0 0.0
2018-Apr-22 07:24N 45°39' W 122°45'0 0.0
2018-Apr-22 06:59N 45°39' W 122°45'0 0.0
2018-Apr-22 06:21N 45°39' W 122°45'0 0.0
2018-Apr-22 06:00N 45°39' W 122°45'0 0.0
2018-Apr-22 05:12N 45°39' W 122°45'0 0.0
2018-Apr-22 05:01N 45°39' W 122°45'0 0.0
2018-Apr-22 04:28N 45°39' W 122°45'0 0.0
2018-Apr-22 04:00N 45°39' W 122°45'0 0.0
2018-Apr-22 03:29N 45°39' W 122°45'0 0.0
2018-Apr-22 03:00N 45°39' W 122°45'0 0.0
2018-Apr-22 02:31N 45°39' W 122°45'0 0.0
2018-Apr-22 02:00N 45°39' W 122°45'1 1.1
2018-Apr-22 01:30N 45°39' W 122°45'2 3.2
2018-Apr-22 01:00N 45°38' W 122°43'0 1.0
2018-Apr-22 00:30N 45°38' W 122°43'2 2.7
2018-Apr-21 23:54N 45°39' W 122°45'0 0.0
2018-Apr-21 23:30N 45°39' W 122°45'1 1.6
2018-Apr-21 23:00N 45°40' W 122°46'0 0.2
2018-Apr-21 22:30N 45°40' W 122°46'1 1.4
2018-Apr-21 22:01N 45°39' W 122°45'0 0.0
2018-Apr-21 21:31N 45°39' W 122°45'0 0.0
2018-Apr-21 21:01N 45°39' W 122°45'2 3.9
2018-Apr-21 20:31N 45°38' W 122°47'3 5.4
2018-Apr-21 20:00N 45°35' W 122°46'0 0.0
2018-Apr-21 19:30N 45°35' W 122°46'0 0.0
2018-Apr-21 18:56N 45°35' W 122°46'0 0.0
2018-Apr-21 18:30N 45°35' W 122°46'0 0.0
2018-Apr-21 17:44N 45°35' W 122°46'0 0.0
2018-Apr-21 17:31N 45°35' W 122°46'0 0.0
2018-Apr-21 17:00N 45°35' W 122°46'0 0.0
2018-Apr-21 16:30N 45°35' W 122°46'0 0.6
2018-Apr-21 16:00N 45°36' W 122°46'4 5.9
2018-Apr-21 15:21N 45°39' W 122°45'0 0.0
2018-Apr-21 15:00N 45°39' W 122°45'0 0.0
2018-Apr-21 14:30N 45°39' W 122°45'0 0.0
2018-Apr-21 14:01N 45°39' W 122°45'0 0.0
2018-Apr-21 13:30N 45°39' W 122°45'0 0.0
2018-Apr-21 13:00N 45°39' W 122°45'0 0.0
2018-Apr-21 12:28N 45°39' W 122°45'0 0.0
2018-Apr-21 12:01N 45°39' W 122°45'0 0.0
2018-Apr-21 11:30N 45°39' W 122°45'0 0.0
2018-Apr-21 11:00N 45°39' W 122°45'0 0.0
2018-Apr-21 10:30N 45°39' W 122°45'3 6.9
2018-Apr-21 10:01N 45°43' W 122°46'4 7.4
2018-Apr-21 09:30N 45°46' W 122°46'4 7.3
2018-Apr-21 09:00N 45°50' W 122°48'3 7.0
2018-Apr-21 08:31N 45°53' W 122°48'4 7.2
2018-Apr-21 08:00N 45°57' W 122°49'4 7.4
2018-Apr-21 07:31N 46°00' W 122°51'1 3.0
2018-Apr-21 07:00N 46°02' W 122°52'0 0.8
2018-Apr-21 06:31N 46°02' W 122°53'0 0.8
2018-Apr-21 06:01N 46°02' W 122°52'0 0.0
2018-Apr-21 05:30N 46°02' W 122°52'0 0.0
2018-Apr-21 05:00N 46°02' W 122°52'0 0.0
2018-Apr-21 04:30N 46°02' W 122°52'2 4.1
2018-Apr-21 04:00N 46°04' W 122°53'0 0.0
2018-Apr-21 03:30N 46°04' W 122°53'0 0.0
2018-Apr-21 03:01N 46°04' W 122°53'0 0.0
2018-Apr-21 02:26N 46°04' W 122°53'0 0.0
2018-Apr-21 02:00N 46°04' W 122°53'0 0.1
2018-Apr-21 01:17N 46°04' W 122°53'0 0.2
2018-Apr-21 01:01N 46°04' W 122°53'0 0.3
2018-Apr-21 00:30N 46°04' W 122°53'0 0.6
2018-Apr-21 00:00N 46°04' W 122°53'2 3.7
2018-Apr-20 23:31N 46°05' W 122°55'0 1.0
2018-Apr-20 23:01N 46°05' W 122°56'0 0.0
2018-Apr-20 22:31N 46°05' W 122°56'0 0.0
2018-Apr-20 22:00N 46°05' W 122°56'0 0.0
2018-Apr-20 21:31N 46°05' W 122°56'0 0.0
2018-Apr-20 21:00N 46°05' W 122°56'1 1.6
2018-Apr-20 20:31N 46°06' W 122°57'0 0.6
2018-Apr-20 20:01N 46°06' W 122°57'1 3.0
2018-Apr-20 19:30N 46°05' W 122°55'712.9
2018-Apr-20 18:58N 45°59' W 122°50'612.6
2018-Apr-20 18:31N 45°53' W 122°48'612.4
2018-Apr-20 18:00N 45°47' W 122°47'812.2
2018-Apr-20 17:22N 45°40' W 122°46'2 5.2
2018-Apr-20 17:00N 45°39' W 122°43'0 0.0
2018-Apr-20 16:30N 45°39' W 122°43'1 2.6
2018-Apr-20 16:00N 45°39' W 122°45'1 1.8
2018-Apr-20 15:31N 45°39' W 122°46'0 0.0
2018-Apr-20 14:58N 45°39' W 122°46'0 0.0
2018-Apr-20 14:30N 45°39' W 122°46'0 0.0
2018-Apr-20 14:00N 45°39' W 122°46'0 0.3
2018-Apr-20 13:30N 45°39' W 122°46'2 4.9
2018-Apr-20 13:00N 45°38' W 122°43'0 0.0
2018-Apr-20 12:31N 45°38' W 122°43'1 1.5
2018-Apr-20 12:01N 45°39' W 122°44'1 1.6
2018-Apr-20 11:30N 45°39' W 122°45'0 0.4
2018-Apr-20 11:01N 45°39' W 122°45'1 1.5
2018-Apr-20 10:31N 45°39' W 122°45'0 0.0
2018-Apr-20 10:00N 45°39' W 122°45'0 0.0
2018-Apr-20 09:30N 45°39' W 122°45'1 1.2
2018-Apr-20 09:00N 45°39' W 122°45'5 9.8
2018-Apr-20 08:31N 45°37' W 122°39'0 0.0
2018-Apr-20 08:00N 45°37' W 122°39'1 1.7
2018-Apr-20 07:31N 45°37' W 122°40'3 5.7
2018-Apr-20 07:00N 45°38' W 122°43'3 6.0
2018-Apr-20 06:30N 45°41' W 122°46'3 6.1
2018-Apr-20 06:00N 45°44' W 122°46'3 6.2
2018-Apr-20 05:30N 45°47' W 122°46'3 6.1
2018-Apr-20 05:01N 45°50' W 122°48'3 6.0
2018-Apr-20 04:31N 45°53' W 122°48'3 6.0
2018-Apr-20 04:00N 45°56' W 122°48'3 6.0
2018-Apr-20 03:31N 45°58' W 122°50'3 6.4
2018-Apr-20 03:00N 46°01' W 122°52'3 6.1
2018-Apr-20 02:30N 46°04' W 122°54'2 4.0
2018-Apr-20 02:00N 46°05' W 122°56'1 2.5
2018-Apr-20 01:30N 46°06' W 122°57'0 0.3
2018-Apr-20 01:00N 46°06' W 122°57'3 5.2
2018-Apr-20 00:31N 46°08' W 123°00'3 5.7
2018-Apr-20 00:01N 46°09' W 123°04'3 5.8
2018-Apr-19 23:31N 46°11' W 123°07'3 5.5
2018-Apr-19 23:00N 46°11' W 123°11'3 5.5
2018-Apr-19 22:30N 46°10' W 123°15'3 5.5
2018-Apr-19 22:00N 46°09' W 123°18'2 4.1
2018-Apr-19 21:30N 46°09' W 123°21'4 8.4
2018-Apr-19 21:00N 46°09' W 123°15'612.3
2018-Apr-19 20:30N 46°11' W 123°06'713.1
2018-Apr-19 20:00N 46°07' W 122°59'612.3
2018-Apr-19 19:30N 46°02' W 122°53'4 8.0
2018-Apr-19 19:00N 45°59' W 122°50'0 0.3
2018-Apr-19 18:31N 45°59' W 122°50'0 0.2
2018-Apr-19 18:00N 45°59' W 122°50'0 0.0
2018-Apr-19 17:30N 45°59' W 122°50'0 0.0
2018-Apr-19 17:00N 45°59' W 122°50'0 0.0
2018-Apr-19 16:30N 45°59' W 122°50'0 0.0
2018-Apr-19 16:00N 45°59' W 122°50'0 0.0
2018-Apr-19 15:30N 45°59' W 122°50'0 0.0
2018-Apr-19 15:00N 45°59' W 122°50'0 0.0
2018-Apr-19 14:30N 45°59' W 122°50'0 0.1
2018-Apr-19 14:01N 45°59' W 122°50'0 0.2
2018-Apr-19 13:30N 45°59' W 122°50'0 0.3
2018-Apr-19 13:00N 45°59' W 122°50'3 5.7
2018-Apr-19 12:30N 46°02' W 122°52'0 0.0
2018-Apr-19 12:00N 46°02' W 122°52'0 0.0
2018-Apr-19 11:21N 46°02' W 122°52'0 0.0
2018-Apr-19 11:00N 46°02' W 122°52'0 0.0
2018-Apr-19 10:30N 46°02' W 122°52'0 0.0
2018-Apr-19 10:00N 46°02' W 122°52'0 0.0
2018-Apr-19 09:31N 46°02' W 122°52'0 0.0
2018-Apr-19 09:00N 46°02' W 122°52'0 0.0
2018-Apr-19 08:30N 46°02' W 122°52'0 0.0
2018-Apr-19 08:00N 46°02' W 122°52'0 0.0
2018-Apr-19 07:30N 46°02' W 122°52'0 0.0
2018-Apr-19 07:01N 46°02' W 122°52'0 0.0
2018-Apr-19 06:17N 46°02' W 122°52'0 0.0
2018-Apr-19 06:00N 46°02' W 122°52'0 0.0
2018-Apr-19 05:30N 46°02' W 122°52'0 0.0
2018-Apr-19 04:58N 46°02' W 122°52'0 0.0
2018-Apr-19 04:30N 46°02' W 122°52'0 0.0
2018-Apr-19 04:00N 46°02' W 122°52'0 0.0
2018-Apr-19 03:30N 46°02' W 122°52'0 0.0
2018-Apr-19 03:01N 46°02' W 122°52'0 0.0
2018-Apr-19 02:30N 46°02' W 122°52'0 0.2
2018-Apr-19 02:00N 46°02' W 122°52'0 0.0
2018-Apr-19 01:19N 46°02' W 122°52'0 0.1
2018-Apr-19 01:00N 46°02' W 122°52'0 0.0
2018-Apr-19 00:30N 46°02' W 122°52'0 0.0
2018-Apr-18 23:59N 46°02' W 122°52'1 3.0
2018-Apr-18 23:30N 46°03' W 122°53'3 6.1
2018-Apr-18 23:00N 46°05' W 122°56'0 0.1
2018-Apr-18 22:13N 46°05' W 122°56'0 0.0
2018-Apr-18 21:46N 46°05' W 122°56'0 0.0
2018-Apr-18 21:30N 46°05' W 122°56'0 0.0
2018-Apr-18 21:00N 46°05' W 122°56'0 0.0
2018-Apr-18 20:30N 46°05' W 122°56'0 0.0
2018-Apr-18 20:00N 46°05' W 122°56'0 0.0
2018-Apr-18 19:30N 46°05' W 122°56'0 0.0
2018-Apr-18 19:00N 46°05' W 122°56'0 0.0
2018-Apr-18 18:30N 46°05' W 122°56'0 0.0
2018-Apr-18 17:44N 46°05' W 122°56'0 0.0
2018-Apr-18 17:30N 46°05' W 122°56'0 0.0
2018-Apr-18 17:01N 46°05' W 122°56'0 0.0
2018-Apr-18 16:30N 46°05' W 122°56'0 0.0
2018-Apr-18 16:00N 46°05' W 122°56'0 0.0
2018-Apr-18 15:30N 46°05' W 122°56'0 0.0
2018-Apr-18 15:00N 46°05' W 122°56'0 0.0
2018-Apr-18 14:30N 46°05' W 122°56'0 0.0
2018-Apr-18 14:00N 46°05' W 122°56'0 0.0
2018-Apr-18 13:27N 46°05' W 122°56'0 0.0
2018-Apr-18 13:00N 46°05' W 122°56'0 0.0
2018-Apr-18 12:30N 46°05' W 122°56'0 0.0
2018-Apr-18 12:00N 46°05' W 122°56'0 0.0
2018-Apr-18 11:26N 46°05' W 122°56'0 0.0
2018-Apr-18 10:57N 46°05' W 122°56'0 0.0
2018-Apr-18 10:30N 46°05' W 122°56'0 0.0
2018-Apr-18 10:00N 46°05' W 122°56'0 0.0
2018-Apr-18 09:30N 46°05' W 122°56'0 0.0
2018-Apr-18 08:56N 46°05' W 122°56'0 0.0
2018-Apr-18 08:30N 46°05' W 122°56'0 0.0
2018-Apr-18 08:00N 46°05' W 122°56'0 0.0
2018-Apr-18 07:30N 46°05' W 122°56'0 0.0
2018-Apr-18 06:52N 46°05' W 122°56'0 0.0
2018-Apr-18 06:30N 46°05' W 122°56'0 0.0
2018-Apr-18 06:00N 46°05' W 122°56'0 0.0
2018-Apr-18 05:30N 46°05' W 122°56'0 0.0
2018-Apr-18 05:00N 46°05' W 122°56'0 0.0
2018-Apr-18 04:30N 46°05' W 122°56'0 0.0
2018-Apr-18 04:00N 46°05' W 122°56'0 0.0
2018-Apr-18 03:30N 46°05' W 122°56'0 0.0
2018-Apr-18 03:00N 46°05' W 122°56'0 0.0
2018-Apr-18 02:30N 46°05' W 122°56'0 0.0
2018-Apr-18 02:00N 46°05' W 122°56'0 0.0
2018-Apr-18 01:30N 46°05' W 122°56'0 0.0
2018-Apr-18 01:00N 46°05' W 122°56'0 0.0
2018-Apr-18 00:30N 46°05' W 122°56'0 0.0
2018-Apr-18 00:00N 46°05' W 122°56'0 0.0
2018-Apr-17 23:30N 46°05' W 122°56'0 0.0
2018-Apr-17 23:00N 46°05' W 122°56'0 0.0
2018-Apr-17 22:30N 46°05' W 122°56'0 0.0
2018-Apr-17 22:00N 46°05' W 122°56'0 0.0
2018-Apr-17 21:30N 46°05' W 122°56'0 0.0
2018-Apr-17 21:00N 46°05' W 122°56'0 0.0
2018-Apr-17 20:30N 46°05' W 122°56'0 0.0
2018-Apr-17 20:00N 46°05' W 122°56'0 0.2
2018-Apr-17 19:10N 46°05' W 122°56'0 0.0
2018-Apr-17 19:00N 46°05' W 122°56'0 0.0
2018-Apr-17 18:28N 46°05' W 122°56'0 0.0
2018-Apr-17 18:00N 46°05' W 122°56'0 0.0
2018-Apr-17 17:29N 46°05' W 122°56'0 0.0
2018-Apr-17 17:00N 46°05' W 122°56'0 0.0
2018-Apr-17 16:15N 46°05' W 122°56'0 0.0
2018-Apr-17 16:00N 46°05' W 122°56'0 0.0
2018-Apr-17 15:30N 46°05' W 122°56'0 0.0
2018-Apr-17 15:00N 46°05' W 122°56'0 0.0
2018-Apr-17 14:30N 46°05' W 122°56'0 0.0
2018-Apr-17 14:00N 46°05' W 122°56'0 0.0
2018-Apr-17 13:30N 46°05' W 122°56'0 0.0
2018-Apr-17 12:53N 46°05' W 122°56'0 0.0
2018-Apr-17 12:30N 46°05' W 122°56'0 0.0
2018-Apr-17 12:00N 46°05' W 122°56'0 0.0
2018-Apr-17 11:30N 46°05' W 122°56'0 0.0
2018-Apr-17 10:51N 46°05' W 122°56'0 0.0
2018-Apr-17 10:30N 46°05' W 122°56'0 0.0
2018-Apr-17 10:01N 46°05' W 122°56'0 0.0
2018-Apr-17 09:30N 46°05' W 122°56'0 0.0
2018-Apr-17 08:51N 46°05' W 122°56'0 0.0
2018-Apr-17 08:30N 46°05' W 122°56'0 0.0
2018-Apr-17 07:59N 46°05' W 122°56'3 6.1
2018-Apr-17 07:31N 46°03' W 122°53'2 2.3
2018-Apr-17 06:50N 46°02' W 122°52'0 1.5
2018-Apr-17 06:31N 46°02' W 122°53'0 0.4
2018-Apr-17 05:21N 46°02' W 122°52'0 0.2
2018-Apr-17 04:58N 46°02' W 122°52'0 0.0
2018-Apr-17 04:22N 46°02' W 122°52'0 0.0
2018-Apr-17 03:58N 46°02' W 122°52'0 0.0
2018-Apr-17 03:28N 46°02' W 122°52'0 0.0
2018-Apr-17 02:58N 46°02' W 122°52'0 0.0
2018-Apr-17 02:28N 46°02' W 122°52'0 0.0
2018-Apr-17 01:58N 46°02' W 122°52'0 0.0
2018-Apr-17 01:28N 46°02' W 122°52'0 0.0
2018-Apr-17 01:00N 46°02' W 122°52'3 4.8
2018-Apr-17 00:24N 45°59' W 122°50'0 0.0
2018-Apr-17 00:01N 45°59' W 122°50'0 0.0
2018-Apr-16 23:24N 45°59' W 122°50'0 0.0
2018-Apr-16 23:00N 45°59' W 122°50'0 0.9
2018-Apr-16 22:30N 45°59' W 122°51'4 8.2
2018-Apr-16 22:00N 46°03' W 122°53'3 6.0
2018-Apr-16 21:30N 46°05' W 122°56'0 0.0
2018-Apr-16 21:00N 46°05' W 122°56'0 0.4
2018-Apr-16 20:21N 46°06' W 122°56'0 0.6
2018-Apr-16 20:01N 46°06' W 122°56'0 0.8
2018-Apr-16 19:27N 46°05' W 122°56'0 0.0
2018-Apr-16 19:00N 46°05' W 122°56'0 0.0
2018-Apr-16 18:30N 46°05' W 122°56'0 0.0
2018-Apr-16 18:01N 46°05' W 122°56'0 0.9
2018-Apr-16 17:30N 46°06' W 122°56'2 4.0
2018-Apr-16 17:00N 46°05' W 122°54'812.1
2018-Apr-16 16:22N 45°58' W 122°49'611.9
2018-Apr-16 15:54N 45°52' W 122°47'411.4
2018-Apr-16 15:31N 45°48' W 122°47'611.2
2018-Apr-16 15:00N 45°42' W 122°46'3 5.4
2018-Apr-16 14:28N 45°39' W 122°45'0 0.0
2018-Apr-16 13:55N 45°39' W 122°45'0 0.0
2018-Apr-16 13:28N 45°39' W 122°45'0 0.0
2018-Apr-16 12:55N 45°39' W 122°45'0 0.0
2018-Apr-16 12:25N 45°39' W 122°45'0 0.0
2018-Apr-16 11:58N 45°39' W 122°45'0 0.0
2018-Apr-16 11:28N 45°39' W 122°45'0 0.0
2018-Apr-16 10:58N 45°39' W 122°45'0 0.0
2018-Apr-16 10:28N 45°39' W 122°45'0 0.0
2018-Apr-16 09:58N 45°39' W 122°45'0 0.0
2018-Apr-16 09:28N 45°39' W 122°45'0 0.0
2018-Apr-16 08:52N 45°39' W 122°45'0 0.0
2018-Apr-16 08:28N 45°39' W 122°45'0 0.0
2018-Apr-16 07:58N 45°39' W 122°45'0 0.0
2018-Apr-16 07:28N 45°39' W 122°45'0 0.0
2018-Apr-16 06:58N 45°39' W 122°45'0 0.0
2018-Apr-16 06:25N 45°39' W 122°45'0 0.0
2018-Apr-16 05:58N 45°39' W 122°45'0 0.0
2018-Apr-16 05:22N 45°39' W 122°45'0 0.0
2018-Apr-16 04:58N 45°39' W 122°45'0 0.0
2018-Apr-16 04:25N 45°39' W 122°45'0 0.0
2018-Apr-16 03:58N 45°39' W 122°45'0 0.0
2018-Apr-16 03:19N 45°39' W 122°45'0 0.0
2018-Apr-16 02:58N 45°39' W 122°45'0 0.0
2018-Apr-16 02:25N 45°39' W 122°45'0 0.0
2018-Apr-16 01:49N 45°39' W 122°45'0 0.0
2018-Apr-16 01:28N 45°39' W 122°45'0 0.0
2018-Apr-16 00:58N 45°39' W 122°45'0 0.0
2018-Apr-16 00:28N 45°39' W 122°45'0 0.0
2018-Apr-15 23:58N 45°39' W 122°45'0 0.0
2018-Apr-15 23:28N 45°39' W 122°45'0 0.0
2018-Apr-15 22:58N 45°39' W 122°45'0 0.0
2018-Apr-15 22:28N 45°39' W 122°45'0 0.0
2018-Apr-15 21:58N 45°39' W 122°45'0 0.0
2018-Apr-15 21:27N 45°39' W 122°45'3 7.0
2018-Apr-15 21:00N 45°36' W 122°47'1 2.4
2018-Apr-15 20:27N 45°35' W 122°46'0 0.0
2018-Apr-15 20:00N 45°35' W 122°46'0 0.0
2018-Apr-15 19:27N 45°35' W 122°46'0 0.0
2018-Apr-15 19:00N 45°35' W 122°46'0 0.0
2018-Apr-15 18:27N 45°35' W 122°46'0 0.0
2018-Apr-15 17:57N 45°35' W 122°46'0 0.0
2018-Apr-15 17:30N 45°35' W 122°46'0 0.0
2018-Apr-15 16:45N 45°35' W 122°46'0 0.0
2018-Apr-15 16:27N 45°35' W 122°46'0 0.0
2018-Apr-15 15:54N 45°35' W 122°46'2 4.0
2018-Apr-15 15:31N 45°34' W 122°44'0 0.7
2018-Apr-15 15:00N 45°34' W 122°44'1 1.2
2018-Apr-15 14:31N 45°35' W 122°45'1 2.5
2018-Apr-15 14:00N 45°35' W 122°46'0 0.0
2018-Apr-15 13:30N 45°35' W 122°46'0 0.0
2018-Apr-15 13:01N 45°35' W 122°46'0 0.0
2018-Apr-15 12:30N 45°35' W 122°46'0 0.0
2018-Apr-15 12:00N 45°35' W 122°46'0 0.0
2018-Apr-15 11:30N 45°35' W 122°46'0 0.0
2018-Apr-15 11:01N 45°35' W 122°46'0 0.0
2018-Apr-15 10:30N 45°35' W 122°46'0 0.0
2018-Apr-15 09:12N 45°35' W 122°46'0 0.0
2018-Apr-15 09:00N 45°35' W 122°46'0 0.0
2018-Apr-15 08:30N 45°35' W 122°46'4 7.7
2018-Apr-15 08:01N 45°39' W 122°46'4 7.2
2018-Apr-15 07:30N 45°43' W 122°46'4 7.2
2018-Apr-15 07:00N 45°46' W 122°46'4 7.2
2018-Apr-15 06:31N 45°50' W 122°48'3 6.7
2018-Apr-15 06:00N 45°53' W 122°48'3 6.8
2018-Apr-15 05:30N 45°56' W 122°49'3 7.0
2018-Apr-15 05:00N 45°60' W 122°51'3 6.7
2018-Apr-15 04:31N 46°03' W 122°53'3 6.6
2018-Apr-15 04:01N 46°05' W 122°55'3 6.6
2018-Apr-15 03:31N 46°07' W 122°59'3 6.6
2018-Apr-15 03:01N 46°09' W 123°03'3 6.7
2018-Apr-15 02:30N 46°11' W 123°07'3 6.4
2018-Apr-15 02:00N 46°11' W 123°12'3 6.7
2018-Apr-15 01:31N 46°09' W 123°16'4 7.1
2018-Apr-15 01:00N 46°09' W 123°21'3 6.8
2018-Apr-15 00:31N 46°10' W 123°25'3 6.9
2018-Apr-15 00:01N 46°14' W 123°26'4 7.0
2018-Apr-14 23:31N 46°16' W 123°30'4 7.5
2018-Apr-14 23:00N 46°15' W 123°35'4 7.3
2018-Apr-14 22:31N 46°15' W 123°40'4 8.0
2018-Apr-14 22:01N 46°13' W 123°45'4 8.3
2018-Apr-14 21:31N 46°12' W 123°51'1 1.6
2018-Apr-14 21:00N 46°11' W 123°52'0 0.0
2018-Apr-14 20:30N 46°11' W 123°52'0 0.0
2018-Apr-14 20:00N 46°11' W 123°52'0 0.0
2018-Apr-14 19:30N 46°11' W 123°52'0 0.0
2018-Apr-14 19:00N 46°11' W 123°52'0 0.0
2018-Apr-14 18:30N 46°11' W 123°52'0 0.0
2018-Apr-14 18:00N 46°11' W 123°52'0 0.0
2018-Apr-14 17:30N 46°11' W 123°52'0 0.0
2018-Apr-14 17:01N 46°11' W 123°52'0 0.0
2018-Apr-14 16:31N 46°11' W 123°52'0 0.0
2018-Apr-14 16:01N 46°11' W 123°52'0 0.3
2018-Apr-14 15:30N 46°11' W 123°52'0 0.1
2018-Apr-14 15:01N 46°11' W 123°51'0 0.4
2018-Apr-14 14:31N 46°11' W 123°52'0 0.0
2018-Apr-14 14:01N 46°11' W 123°52'0 0.0
2018-Apr-14 13:30N 46°11' W 123°52'0 0.0
2018-Apr-14 12:59N 46°11' W 123°52'4 8.7
2018-Apr-14 12:31N 46°13' W 123°46'611.9
2018-Apr-14 12:00N 46°16' W 123°38'611.9
2018-Apr-14 11:31N 46°16' W 123°30'510.1
2018-Apr-14 11:00N 46°12' W 123°26'8 9.0
2018-Apr-14 10:05N 46°10' W 123°14'111.2
2018-Apr-14 10:00N 46°10' W 123°13'510.1
2018-Apr-14 09:31N 46°10' W 123°06'711.2
2018-Apr-14 08:55N 46°06' W 122°58'411.0
2018-Apr-14 08:31N 46°03' W 122°53'611.8
2018-Apr-14 08:00N 45°58' W 122°50'611.8
2018-Apr-14 07:31N 45°52' W 122°47'611.4
2018-Apr-14 07:00N 45°47' W 122°46'611.7
2018-Apr-14 06:30N 45°41' W 122°47'3 6.2
2018-Apr-14 06:00N 45°38' W 122°45'0 0.7
2018-Apr-14 05:30N 45°38' W 122°44'2 3.1
2018-Apr-14 04:56N 45°38' W 122°47'1 2.0
2018-Apr-14 04:24N 45°37' W 122°47'2 3.5
2018-Apr-14 03:44N 45°35' W 122°46'0 0.0
2018-Apr-14 03:29N 45°35' W 122°46'0 0.0
2018-Apr-14 02:56N 45°35' W 122°46'0 0.0
2018-Apr-14 02:23N 45°35' W 122°46'0 0.0
2018-Apr-14 01:50N 45°35' W 122°46'0 0.0
2018-Apr-14 01:29N 45°35' W 122°46'0 0.0
2018-Apr-14 00:56N 45°35' W 122°46'0 0.0
2018-Apr-14 00:29N 45°35' W 122°46'0 0.0
2018-Apr-13 23:59N 45°35' W 122°46'0 0.0
2018-Apr-13 23:26N 45°35' W 122°46'0 0.0
2018-Apr-13 22:56N 45°35' W 122°46'0 0.0
2018-Apr-13 22:29N 45°35' W 122°46'0 0.0
2018-Apr-13 21:59N 45°35' W 122°46'0 0.0
2018-Apr-13 21:29N 45°35' W 122°46'0 0.0
2018-Apr-13 20:56N 45°35' W 122°46'0 0.0
2018-Apr-13 20:29N 45°35' W 122°46'0 0.0
2018-Apr-13 19:59N 45°35' W 122°46'0 0.0
2018-Apr-13 19:29N 45°35' W 122°46'0 0.0
2018-Apr-13 18:59N 45°35' W 122°46'0 0.0
2018-Apr-13 18:14N 45°35' W 122°46'0 0.0
2018-Apr-13 17:59N 45°35' W 122°46'0 0.0
2018-Apr-13 16:41N 45°35' W 122°46'0 0.0
2018-Apr-13 16:29N 45°35' W 122°46'0 0.0
2018-Apr-13 15:53N 45°35' W 122°46'0 0.0
2018-Apr-13 15:29N 45°35' W 122°46'0 0.0
2018-Apr-13 14:41N 45°35' W 122°46'0 0.0
2018-Apr-13 14:26N 45°35' W 122°46'0 0.0
2018-Apr-13 13:53N 45°35' W 122°46'0 0.0
2018-Apr-13 13:26N 45°35' W 122°46'0 0.0
2018-Apr-13 12:59N 45°35' W 122°46'0 0.0
2018-Apr-13 12:29N 45°35' W 122°46'0 0.0
2018-Apr-13 11:59N 45°35' W 122°46'0 0.0
2018-Apr-13 11:26N 45°35' W 122°46'0 0.0
2018-Apr-13 10:59N 45°35' W 122°46'0 0.0
2018-Apr-13 10:26N 45°35' W 122°46'0 0.0
2018-Apr-13 09:59N 45°35' W 122°46'0 0.0
2018-Apr-13 09:26N 45°35' W 122°46'0 0.0
2018-Apr-13 09:00N 45°35' W 122°46'3 5.5
2018-Apr-13 08:30N 45°38' W 122°47'4 8.2
2018-Apr-13 08:01N 45°42' W 122°46'4 8.0
2018-Apr-13 07:31N 45°46' W 122°46'4 7.8
2018-Apr-13 07:00N 45°50' W 122°48'4 7.4
2018-Apr-13 06:30N 45°53' W 122°48'4 7.4
2018-Apr-13 06:00N 45°57' W 122°49'4 7.6
2018-Apr-13 05:31N 46°00' W 122°51'4 7.5
2018-Apr-13 05:00N 46°04' W 122°53'4 7.2
2018-Apr-13 04:30N 46°06' W 122°57'5 7.3
2018-Apr-13 03:49N 46°09' W 123°03'4 7.5
2018-Apr-13 03:21N 46°11' W 123°07'2 7.2
2018-Apr-13 03:00N 46°11' W 123°11'4 7.1
2018-Apr-13 02:30N 46°09' W 123°15'4 7.5
2018-Apr-13 01:59N 46°09' W 123°21'4 7.2
2018-Apr-13 01:26N 46°11' W 123°26'3 7.2
2018-Apr-13 01:01N 46°14' W 123°26'3 6.9
2018-Apr-13 00:30N 46°16' W 123°30'5 7.4
2018-Apr-12 23:47N 46°15' W 123°38'2 7.3
2018-Apr-12 23:31N 46°15' W 123°40'4 7.6
2018-Apr-12 23:01N 46°13' W 123°45'4 7.7
2018-Apr-12 22:30N 46°12' W 123°50'1 2.0
2018-Apr-12 22:00N 46°11' W 123°52'0 0.0
2018-Apr-12 21:31N 46°11' W 123°52'0 0.2
2018-Apr-12 21:00N 46°11' W 123°52'1 2.2
2018-Apr-12 20:31N 46°11' W 123°53'1 2.2
2018-Apr-12 20:00N 46°11' W 123°52'0 0.0
2018-Apr-12 19:30N 46°11' W 123°52'0 0.0
2018-Apr-12 19:00N 46°11' W 123°52'0 0.0
2018-Apr-12 18:31N 46°11' W 123°52'0 0.0
2018-Apr-12 18:00N 46°11' W 123°52'0 0.0
2018-Apr-12 17:31N 46°11' W 123°52'0 0.0
2018-Apr-12 17:00N 46°11' W 123°52'0 0.0
2018-Apr-12 16:31N 46°11' W 123°52'0 0.0
2018-Apr-12 16:00N 46°11' W 123°52'  

Dump ship's entire track history